sensor_id;sensor_type;location;lat;lon;timestamp;pressure;altitude;pressure_sealevel;temperature;humidity
42725;BME280;28369;44.046;23.014;2023-03-21T03:54:07;100605.00;;;15.90;46.62
42725;BME280;28369;44.046;23.014;2023-03-21T03:56:34;100678.09;;;15.93;47.66
42725;BME280;28369;44.046;23.014;2023-03-21T03:59:15;100988.34;;;17.78;48.38
42725;BME280;28369;44.046;23.014;2023-03-21T04:05:07;100680.56;;;15.43;48.57
42725;BME280;28369;44.046;23.014;2023-03-21T04:11:00;100874.78;;;16.98;48.16
42725;BME280;28369;44.046;23.014;2023-03-21T04:17:17;100881.88;;;17.55;47.12
42725;BME280;28369;44.046;23.014;2023-03-21T04:23:06;100944.75;;;18.21;46.31
42725;BME280;28369;44.046;23.014;2023-03-21T04:29:26;101015.03;;;18.43;46.27
42725;BME280;28369;44.046;23.014;2023-03-21T04:35:23;100790.34;;;16.26;47.97
42725;BME280;28369;44.046;23.014;2023-03-21T04:41:11;100849.78;;;16.50;48.66
42725;BME280;28369;44.046;23.014;2023-03-21T04:43:36;100766.28;;;15.68;49.26
42725;BME280;28369;44.046;23.014;2023-03-21T04:46:02;100695.25;;;15.29;49.47
42725;BME280;28369;44.046;23.014;2023-03-21T04:48:29;101038.75;;;16.88;50.23
42725;BME280;28369;44.046;23.014;2023-03-21T04:51:14;101035.03;;;16.20;52.66
42725;BME280;28369;44.046;23.014;2023-03-21T04:53:40;101041.13;;;16.12;53.17
42725;BME280;28369;44.046;23.014;2023-03-21T04:56:10;101050.22;;;16.62;52.04
42725;BME280;28369;44.046;23.014;2023-03-21T04:58:43;100649.44;;;13.78;52.48
42725;BME280;28369;44.046;23.014;2023-03-21T05:01:09;101043.38;;;16.25;52.95
42725;BME280;28369;44.046;23.014;2023-03-21T05:03:35;100939.94;;;15.99;51.99
42725;BME280;28369;44.046;23.014;2023-03-21T05:06:08;100945.97;;;16.44;50.94
42725;BME280;28369;44.046;23.014;2023-03-21T05:08:45;100951.72;;;16.73;50.28
42725;BME280;28369;44.046;23.014;2023-03-21T05:11:13;101058.72;;;17.08;51.23
42725;BME280;28369;44.046;23.014;2023-03-21T05:13:39;101062.53;;;17.14;51.52
42725;BME280;28369;44.046;23.014;2023-03-21T05:16:06;100672.47;;;15.10;50.38
42725;BME280;28369;44.046;23.014;2023-03-21T05:18:34;100774.78;;;16.23;48.95
42725;BME280;28369;44.046;23.014;2023-03-21T05:21:03;101055.28;;;18.40;48.35
42725;BME280;28369;44.046;23.014;2023-03-21T05:23:32;100755.56;;;16.29;48.14
42725;BME280;28369;44.046;23.014;2023-03-21T05:26:07;100666.16;;;15.37;49.62
42725;BME280;28369;44.046;23.014;2023-03-21T05:28:34;101062.81;;;17.62;50.50
42725;BME280;28369;44.046;23.014;2023-03-21T05:31:04;100947.53;;;17.55;48.68
42725;BME280;28369;44.046;23.014;2023-03-21T05:36:55;100926.50;;;18.09;47.26
42725;BME280;28369;44.046;23.014;2023-03-21T05:42:54;101058.84;;;19.20;46.28
42725;BME280;28369;44.046;23.014;2023-03-21T05:49:02;101052.94;;;19.56;45.40
42725;BME280;28369;44.046;23.014;2023-03-21T05:55:04;100677.47;;;17.69;44.36
42725;BME280;28369;44.046;23.014;2023-03-21T06:01:26;101054.44;;;20.49;43.97
42725;BME280;28369;44.046;23.014;2023-03-21T06:18:04;101065.00;;;21.39;41.46
42725;BME280;28369;44.046;23.014;2023-03-21T06:24:12;101059.88;;;21.59;41.11
42725;BME280;28369;44.046;23.014;2023-03-21T07:03:45;101063.78;;;22.70;39.60
42725;BME280;28369;44.046;23.014;2023-03-21T07:36:55;100848.19;;;22.79;37.56
42725;BME280;28369;44.046;23.014;2023-03-21T07:39:21;100845.13;;;22.95;37.41
42725;BME280;28369;44.046;23.014;2023-03-21T07:41:47;100818.69;;;22.79;37.93
42725;BME280;28369;44.046;23.014;2023-03-21T07:44:13;101098.72;;;24.52;38.25
42725;BME280;28369;44.046;23.014;2023-03-21T07:49:43;100682.31;;;21.55;38.41
42725;BME280;28369;44.046;23.014;2023-03-21T07:52:48;101098.34;;;24.48;38.20
42725;BME280;28369;44.046;23.014;2023-03-21T07:55:13;100726.28;;;22.15;38.65
42725;BME280;28369;44.046;23.014;2023-03-21T07:57:41;100851.94;;;23.11;37.39
42725;BME280;28369;44.046;23.014;2023-03-21T08:00:07;100814.59;;;22.83;37.73
42725;BME280;28369;44.046;23.014;2023-03-21T08:02:33;101013.44;;;24.27;37.18
42725;BME280;28369;44.046;23.014;2023-03-21T08:04:59;100829.06;;;23.16;37.88
42725;BME280;28369;44.046;23.014;2023-03-21T08:07:24;101090.53;;;24.99;37.49
42725;BME280;28369;44.046;23.014;2023-03-21T08:09:52;101099.38;;;25.13;37.09
42725;BME280;28369;44.046;23.014;2023-03-21T08:12:17;101078.19;;;25.30;36.58
42725;BME280;28369;44.046;23.014;2023-03-21T08:14:43;101073.75;;;25.49;36.70
42725;BME280;28369;44.046;23.014;2023-03-21T08:17:09;101070.81;;;25.57;37.09
42725;BME280;28369;44.046;23.014;2023-03-21T08:19:34;101068.28;;;25.62;36.93
42725;BME280;28369;44.046;23.014;2023-03-21T08:22:01;101049.97;;;25.07;36.32
42725;BME280;28369;44.046;23.014;2023-03-21T08:24:30;101060.16;;;25.37;35.95
42725;BME280;28369;44.046;23.014;2023-03-21T08:26:57;100814.97;;;23.40;36.49
42725;BME280;28369;44.046;23.014;2023-03-21T08:32:07;100961.16;;;24.37;37.84
42725;BME280;28369;44.046;23.014;2023-03-21T08:34:33;101049.66;;;25.61;36.97
42725;BME280;28369;44.046;23.014;2023-03-21T08:36:59;101047.28;;;25.96;36.32
42725;BME280;28369;44.046;23.014;2023-03-21T08:39:25;101057.59;;;26.25;36.34
42725;BME280;28369;44.046;23.014;2023-03-21T08:41:51;101042.94;;;26.58;35.28
42725;BME280;28369;44.046;23.014;2023-03-21T08:44:17;100983.53;;;26.15;34.46
42725;BME280;28369;44.046;23.014;2023-03-21T08:46:42;101052.16;;;26.50;35.10
42725;BME280;28369;44.046;23.014;2023-03-21T08:49:08;101020.56;;;26.38;34.66
42725;BME280;28369;44.046;23.014;2023-03-21T08:51:33;101015.19;;;25.95;34.85
42725;BME280;28369;44.046;23.014;2023-03-21T08:54:02;101054.66;;;26.08;35.24
42725;BME280;28369;44.046;23.014;2023-03-21T08:56:27;101055.78;;;25.93;34.34
42725;BME280;28369;44.046;23.014;2023-03-21T08:58:53;101048.75;;;26.17;34.49
42725;BME280;28369;44.046;23.014;2023-03-21T09:01:18;101027.91;;;26.31;34.82
42725;BME280;28369;44.046;23.014;2023-03-21T09:03:47;101033.66;;;26.53;34.09
42725;BME280;28369;44.046;23.014;2023-03-21T09:06:12;101053.06;;;26.62;33.75
42725;BME280;28369;44.046;23.014;2023-03-21T09:08:39;100996.38;;;26.50;33.75
42725;BME280;28369;44.046;23.014;2023-03-21T09:11:06;100899.09;;;26.21;33.66
42725;BME280;28369;44.046;23.014;2023-03-21T09:13:32;101049.28;;;27.00;33.06
42725;BME280;28369;44.046;23.014;2023-03-21T09:15:57;101024.19;;;26.69;32.82
42725;BME280;28369;44.046;23.014;2023-03-21T09:18:26;100964.69;;;25.14;34.61
42725;BME280;28369;44.046;23.014;2023-03-21T09:21:12;101027.28;;;25.60;35.07
42725;BME280;28369;44.046;23.014;2023-03-21T09:23:39;101038.75;;;26.25;33.84
42725;BME280;28369;44.046;23.014;2023-03-21T09:26:06;100982.16;;;24.98;33.17
42725;BME280;28369;44.046;23.014;2023-03-21T09:28:33;100744.88;;;23.23;32.93
42725;BME280;28369;44.046;23.014;2023-03-21T09:30:59;100862.34;;;24.39;32.46
42725;BME280;28369;44.046;23.014;2023-03-21T09:33:27;100996.91;;;25.21;32.62
42725;BME280;28369;44.046;23.014;2023-03-21T09:35:54;100756.31;;;23.57;32.68
42725;BME280;28369;44.046;23.014;2023-03-21T09:38:20;101034.25;;;25.43;32.76
42725;BME280;28369;44.046;23.014;2023-03-21T09:41:10;101022.44;;;25.94;32.90
42725;BME280;28369;44.046;23.014;2023-03-21T09:46:49;100888.56;;;24.82;32.70
42725;BME280;28369;44.046;23.014;2023-03-21T09:49:19;100974.03;;;25.87;31.91
42725;BME280;28369;44.046;23.014;2023-03-21T09:51:48;101009.13;;;26.92;31.33
42725;BME280;28369;44.046;23.014;2023-03-21T09:54:25;101020.91;;;25.80;32.58
42725;BME280;28369;44.046;23.014;2023-03-21T09:56:57;100986.41;;;25.95;32.39
42725;BME280;28369;44.046;23.014;2023-03-21T09:59:34;100798.50;;;24.73;32.48
42725;BME280;28369;44.046;23.014;2023-03-21T10:02:12;100972.59;;;25.85;32.34
42725;BME280;28369;44.046;23.014;2023-03-21T10:04:44;101030.13;;;26.53;32.16
42725;BME280;28369;44.046;23.014;2023-03-21T10:07:12;100936.25;;;26.50;31.69
42725;BME280;28369;44.046;23.014;2023-03-21T10:09:45;101009.22;;;27.28;30.92
42725;BME280;28369;44.046;23.014;2023-03-21T10:12:20;100879.81;;;26.67;30.33
42725;BME280;28369;44.046;23.014;2023-03-21T10:14:51;101001.59;;;26.82;31.12
42725;BME280;28369;44.046;23.014;2023-03-21T10:17:24;101015.75;;;26.78;31.33
42725;BME280;28369;44.046;23.014;2023-03-21T10:20:14;101001.03;;;27.22;30.78
42725;BME280;28369;44.046;23.014;2023-03-21T10:22:40;101003.88;;;26.97;31.04
42725;BME280;28369;44.046;23.014;2023-03-21T10:25:07;100994.06;;;27.15;31.99
42725;BME280;28369;44.046;23.014;2023-03-21T10:27:36;100965.22;;;26.73;31.49
42725;BME280;28369;44.046;23.014;2023-03-21T10:30:04;101008.53;;;26.90;32.10
42725;BME280;28369;44.046;23.014;2023-03-21T10:32:32;100985.41;;;27.13;31.44
42725;BME280;28369;44.046;23.014;2023-03-21T10:34:58;100983.13;;;27.52;30.86
42725;BME280;28369;44.046;23.014;2023-03-21T10:37:25;100984.78;;;27.53;30.27
42725;BME280;28369;44.046;23.014;2023-03-21T10:39:52;100985.94;;;27.81;31.32
42725;BME280;28369;44.046;23.014;2023-03-21T10:42:20;100997.75;;;27.98;30.19
42725;BME280;28369;44.046;23.014;2023-03-21T10:44:50;100993.94;;;28.23;30.09
42725;BME280;28369;44.046;23.014;2023-03-21T10:47:25;100988.03;;;28.26;29.83
42725;BME280;28369;44.046;23.014;2023-03-21T10:49:51;100989.28;;;28.47;30.28
42725;BME280;28369;44.046;23.014;2023-03-21T10:52:20;100969.16;;;28.55;29.56
42725;BME280;28369;44.046;23.014;2023-03-21T10:54:47;100984.97;;;28.75;29.55
42725;BME280;28369;44.046;23.014;2023-03-21T10:57:22;100978.53;;;28.35;30.18
42725;BME280;28369;44.046;23.014;2023-03-21T10:59:52;100814.25;;;27.85;29.50
42725;BME280;28369;44.046;23.014;2023-03-21T11:02:24;100972.56;;;28.62;29.79
42725;BME280;28369;44.046;23.014;2023-03-21T11:04:52;100844.91;;;27.90;30.30
42725;BME280;28369;44.046;23.014;2023-03-21T11:07:18;100929.13;;;28.40;29.90
42725;BME280;28369;44.046;23.014;2023-03-21T11:09:48;100775.28;;;27.16;30.48
42725;BME280;28369;44.046;23.014;2023-03-21T11:12:17;100817.28;;;27.59;29.99
42725;BME280;28369;44.046;23.014;2023-03-21T11:14:49;100927.50;;;28.39;29.96
42725;BME280;28369;44.046;23.014;2023-03-21T11:19:50;100878.59;;;28.40;29.84
42725;BME280;28369;44.046;23.014;2023-03-21T11:22:19;100945.69;;;29.18;29.57
42725;BME280;28369;44.046;23.014;2023-03-21T11:24:49;100844.00;;;28.71;29.45
42725;BME280;28369;44.046;23.014;2023-03-21T11:27:16;100927.91;;;29.05;29.44
42725;BME280;28369;44.046;23.014;2023-03-21T11:29:47;100927.47;;;29.13;30.10
42725;BME280;28369;44.046;23.014;2023-03-21T11:32:40;100930.94;;;29.26;29.92
42725;BME280;28369;44.046;23.014;2023-03-21T11:35:14;100933.72;;;29.14;30.49
42725;BME280;28369;44.046;23.014;2023-03-21T11:37:45;100933.56;;;29.38;30.03
42725;BME280;28369;44.046;23.014;2023-03-21T11:40:53;100915.59;;;29.48;30.20
42725;BME280;28369;44.046;23.014;2023-03-21T11:48:22;100825.09;;;28.42;30.08
42725;BME280;28369;44.046;23.014;2023-03-21T11:50:50;100847.44;;;28.09;30.85
42725;BME280;28369;44.046;23.014;2023-03-21T12:01:30;100865.06;;;28.86;29.90
42725;BME280;28369;44.046;23.014;2023-03-21T12:06:48;100757.63;;;28.65;29.36
42725;BME280;28369;44.046;23.014;2023-03-21T12:20:38;100749.78;;;29.86;29.30
42725;BME280;28369;44.046;23.014;2023-03-21T12:23:19;100851.19;;;29.95;29.89
42725;BME280;28369;44.046;23.014;2023-03-21T12:37:32;100852.25;;;29.72;28.60
42725;BME280;28369;44.046;23.014;2023-03-21T12:40:16;100838.75;;;29.55;28.60
42725;BME280;28369;44.046;23.014;2023-03-21T12:45:25;100875.69;;;30.27;28.90
42725;BME280;28369;44.046;23.014;2023-03-21T12:48:12;100832.75;;;29.30;28.92
42725;BME280;28369;44.046;23.014;2023-03-21T12:50:39;100836.91;;;27.96;30.45
42725;BME280;28369;44.046;23.014;2023-03-21T12:55:47;100802.59;;;28.71;28.64
42725;BME280;28369;44.046;23.014;2023-03-21T12:58:18;100822.69;;;28.00;29.92
42725;BME280;28369;44.046;23.014;2023-03-21T13:00:48;100664.00;;;26.97;30.51
42725;BME280;28369;44.046;23.014;2023-03-21T13:03:19;100680.69;;;27.75;30.59
42725;BME280;28369;44.046;23.014;2023-03-21T13:11:15;100841.88;;;29.07;30.29
42725;BME280;28369;44.046;23.014;2023-03-21T13:16:34;100706.06;;;28.54;29.64
42725;BME280;28369;44.046;23.014;2023-03-21T13:24:49;100840.03;;;29.47;29.33
42725;BME280;28369;44.046;23.014;2023-03-21T13:27:36;100828.88;;;29.09;29.68
42725;BME280;28369;44.046;23.014;2023-03-21T13:32:35;100654.56;;;27.35;31.05
42725;BME280;28369;44.046;23.014;2023-03-21T13:35:32;100824.63;;;28.45;30.89
42725;BME280;28369;44.046;23.014;2023-03-21T13:38:02;100808.13;;;28.30;30.91
42725;BME280;28369;44.046;23.014;2023-03-21T13:40:36;100631.59;;;27.09;31.14
42725;BME280;28369;44.046;23.014;2023-03-21T13:43:02;100701.22;;;27.48;30.73
42725;BME280;28369;44.046;23.014;2023-03-21T13:45:34;100808.22;;;28.35;30.77
42725;BME280;28369;44.046;23.014;2023-03-21T13:50:59;100673.19;;;27.25;30.95
42725;BME280;28369;44.046;23.014;2023-03-21T13:53:30;100767.91;;;27.76;31.39
42725;BME280;28369;44.046;23.014;2023-03-21T13:56:08;100824.34;;;28.30;31.21
42725;BME280;28369;44.046;23.014;2023-03-21T14:01:35;100814.19;;;28.37;30.93
42725;BME280;28369;44.046;23.014;2023-03-21T14:04:15;100765.75;;;27.90;30.77
42725;BME280;28369;44.046;23.014;2023-03-21T14:06:43;100817.72;;;28.55;30.85
42725;BME280;28369;44.046;23.014;2023-03-21T14:09:40;100782.50;;;28.33;30.65
42725;BME280;28369;44.046;23.014;2023-03-21T14:12:08;100748.38;;;28.15;30.19
42725;BME280;28369;44.046;23.014;2023-03-21T14:14:45;100765.63;;;28.25;30.77
42725;BME280;28369;44.046;23.014;2023-03-21T14:17:14;100710.75;;;27.96;30.19
42725;BME280;28369;44.046;23.014;2023-03-21T14:19:51;100776.31;;;28.66;29.93
42725;BME280;28369;44.046;23.014;2023-03-21T14:22:17;100804.66;;;28.98;30.07
42725;BME280;28369;44.046;23.014;2023-03-21T14:24:58;100776.91;;;28.68;30.03
42725;BME280;28369;44.046;23.014;2023-03-21T14:27:28;100747.78;;;28.41;30.05
42725;BME280;28369;44.046;23.014;2023-03-21T14:29:54;100801.53;;;28.89;30.63
42725;BME280;28369;44.046;23.014;2023-03-21T14:32:22;100763.44;;;28.73;30.97
42725;BME280;28369;44.046;23.014;2023-03-21T14:34:49;100747.41;;;28.67;31.11
42725;BME280;28369;44.046;23.014;2023-03-21T14:37:30;100765.81;;;28.87;30.67
42725;BME280;28369;44.046;23.014;2023-03-21T14:39:57;100802.91;;;29.08;31.17
42725;BME280;28369;44.046;23.014;2023-03-21T14:42:24;100735.81;;;28.54;31.16
42725;BME280;28369;44.046;23.014;2023-03-21T14:44:50;100665.38;;;28.10;31.14
42725;BME280;28369;44.046;23.014;2023-03-21T14:47:18;100740.56;;;28.30;31.99
42725;BME280;28369;44.046;23.014;2023-03-21T14:49:44;100730.41;;;28.37;31.51
42725;BME280;28369;44.046;23.014;2023-03-21T14:52:16;100773.81;;;28.48;31.47
42725;BME280;28369;44.046;23.014;2023-03-21T14:54:46;100726.88;;;28.20;31.55
42725;BME280;28369;44.046;23.014;2023-03-21T14:57:23;100728.31;;;28.10;31.79
42725;BME280;28369;44.046;23.014;2023-03-21T14:59:51;100794.94;;;28.51;31.36
42725;BME280;28369;44.046;23.014;2023-03-21T15:02:28;100788.81;;;28.55;31.63
42725;BME280;28369;44.046;23.014;2023-03-21T15:04:57;100741.53;;;28.24;31.35
42725;BME280;28369;44.046;23.014;2023-03-21T15:07:32;100707.44;;;28.06;31.30
42725;BME280;28369;44.046;23.014;2023-03-21T15:10:00;100770.06;;;28.49;31.15
42725;BME280;28369;44.046;23.014;2023-03-21T15:12:29;100800.34;;;28.63;31.25
42725;BME280;28369;44.046;23.014;2023-03-21T15:14:54;100745.19;;;28.18;31.25
42725;BME280;28369;44.046;23.014;2023-03-21T15:17:21;100684.19;;;27.76;31.53
42725;BME280;28369;44.046;23.014;2023-03-21T15:19:47;100766.78;;;28.30;31.77
42725;BME280;28369;44.046;23.014;2023-03-21T15:22:36;100794.13;;;28.50;32.06
42725;BME280;28369;44.046;23.014;2023-03-21T15:25:05;100670.75;;;27.64;32.37
42725;BME280;28369;44.046;23.014;2023-03-21T15:27:37;100770.81;;;27.98;32.45
42725;BME280;28369;44.046;23.014;2023-03-21T15:30:03;100578.44;;;26.81;32.48
42725;BME280;28369;44.046;23.014;2023-03-21T15:32:29;100780.13;;;27.79;33.33
42725;BME280;28369;44.046;23.014;2023-03-21T15:35:06;100790.47;;;28.10;32.51
42725;BME280;28369;44.046;23.014;2023-03-21T15:37:34;100658.88;;;27.36;32.56
42725;BME280;28369;44.046;23.014;2023-03-21T15:40:18;100750.13;;;27.92;32.99
42725;BME280;28369;44.046;23.014;2023-03-21T15:42:44;100757.06;;;27.88;33.22
42725;BME280;28369;44.046;23.014;2023-03-21T15:45:22;100713.03;;;26.94;34.52
42725;BME280;28369;44.046;23.014;2023-03-21T15:47:55;100817.16;;;27.31;35.19
42725;BME280;28369;44.046;23.014;2023-03-21T15:52:58;100794.78;;;27.18;36.74
42725;BME280;28369;44.046;23.014;2023-03-21T15:55:28;100769.22;;;26.97;37.00
42725;BME280;28369;44.046;23.014;2023-03-21T15:58:02;100792.06;;;26.83;37.57
42725;BME280;28369;44.046;23.014;2023-03-21T16:00:38;100765.56;;;27.03;37.22
42725;BME280;28369;44.046;23.014;2023-03-21T16:03:12;100781.06;;;26.84;37.31
42725;BME280;28369;44.046;23.014;2023-03-21T16:05:41;100682.75;;;26.45;36.86
42725;BME280;28369;44.046;23.014;2023-03-21T16:08:17;100789.97;;;27.08;36.36
42725;BME280;28369;44.046;23.014;2023-03-21T16:10:44;100758.19;;;26.75;36.71
42725;BME280;28369;44.046;23.014;2023-03-21T16:13:10;100788.59;;;26.52;36.86
42725;BME280;28369;44.046;23.014;2023-03-21T16:15:38;100791.94;;;26.78;36.69
42725;BME280;28369;44.046;23.014;2023-03-21T16:18:04;100768.50;;;26.78;36.54
42725;BME280;28369;44.046;23.014;2023-03-21T16:20:33;100788.34;;;26.84;36.92
42725;BME280;28369;44.046;23.014;2023-03-21T16:23:01;100770.72;;;26.69;36.77
42725;BME280;28369;44.046;23.014;2023-03-21T16:25:28;100774.38;;;26.75;36.98
42725;BME280;28369;44.046;23.014;2023-03-21T16:27:54;100789.13;;;26.84;37.30
42725;BME280;28369;44.046;23.014;2023-03-21T16:30:21;100581.16;;;25.44;37.49
42725;BME280;28369;44.046;23.014;2023-03-21T16:32:47;100760.59;;;26.11;38.47
42725;BME280;28369;44.046;23.014;2023-03-21T16:35:14;100764.34;;;25.61;39.26
42725;BME280;28369;44.046;23.014;2023-03-21T16:37:40;100699.44;;;25.13;39.54
42725;BME280;28369;44.046;23.014;2023-03-21T16:40:16;100744.78;;;25.35;39.91
42725;BME280;28369;44.046;23.014;2023-03-21T16:42:44;100778.91;;;25.53;39.79
42725;BME280;28369;44.046;23.014;2023-03-21T16:45:10;100765.38;;;25.78;39.56
42725;BME280;28369;44.046;23.014;2023-03-21T16:47:36;100783.72;;;25.69;39.72
42725;BME280;28369;44.046;23.014;2023-03-21T16:50:04;100787.41;;;26.06;39.21
42725;BME280;28369;44.046;23.014;2023-03-21T16:52:35;100699.88;;;25.29;39.61
42725;BME280;28369;44.046;23.014;2023-03-21T16:55:00;100779.06;;;25.77;39.46
42725;BME280;28369;44.046;23.014;2023-03-21T16:57:27;100791.56;;;25.71;39.69
42725;BME280;28369;44.046;23.014;2023-03-21T16:59:53;100796.09;;;25.70;39.53
42725;BME280;28369;44.046;23.014;2023-03-21T17:02:20;100793.56;;;25.76;39.49
42725;BME280;28369;44.046;23.014;2023-03-21T17:04:47;100793.78;;;25.74;39.59
42725;BME280;28369;44.046;23.014;2023-03-21T17:07:13;100760.38;;;25.45;39.88
42725;BME280;28369;44.046;23.014;2023-03-21T17:09:40;100754.97;;;25.26;40.04
42725;BME280;28369;44.046;23.014;2023-03-21T17:12:11;100698.47;;;24.89;39.94
42725;BME280;28369;44.046;23.014;2023-03-21T17:14:42;100795.00;;;25.41;40.11
42725;BME280;28369;44.046;23.014;2023-03-21T17:17:12;100686.19;;;24.75;39.81
42725;BME280;28369;44.046;23.014;2023-03-21T17:19:38;100804.34;;;25.39;40.06
42725;BME280;28369;44.046;23.014;2023-03-21T17:22:05;100800.50;;;25.46;40.01
42725;BME280;28369;44.046;23.014;2023-03-21T17:24:31;100723.13;;;25.05;40.02
42725;BME280;28369;44.046;23.014;2023-03-21T17:26:59;100760.53;;;25.31;39.76
42725;BME280;28369;44.046;23.014;2023-03-21T17:29:25;100803.00;;;25.48;39.76
42725;BME280;28369;44.046;23.014;2023-03-21T17:31:50;100787.28;;;25.45;39.88
42725;BME280;28369;44.046;23.014;2023-03-21T17:34:16;100789.69;;;25.34;39.67
42725;BME280;28369;44.046;23.014;2023-03-21T17:36:43;100806.97;;;25.45;39.78
42725;BME280;28369;44.046;23.014;2023-03-21T17:39:18;100742.63;;;25.00;39.66
42725;BME280;28369;44.046;23.014;2023-03-21T17:41:44;100758.88;;;24.61;40.37
42725;BME280;28369;44.046;23.014;2023-03-21T18:23:46;100637.69;;;23.49;41.42
42725;BME280;28369;44.046;23.014;2023-03-21T18:53:00;100790.34;;;24.22;42.27
42725;BME280;28369;44.046;23.014;2023-03-21T18:55:26;100868.13;;;24.81;42.13
42725;BME280;28369;44.046;23.014;2023-03-21T18:57:51;100590.84;;;22.99;42.33
42725;BME280;28369;44.046;23.014;2023-03-21T19:00:18;100594.44;;;22.80;43.25
